sensor_id;sensor_type;location;lat;lon;timestamp;pressure;altitude;pressure_sealevel;temperature;humidity
55932;BME280;41837;55.700;37.984;2023-02-22T00:00:42;98815.13;;;-18.71;100.00
55932;BME280;41837;55.700;37.984;2023-02-22T00:03:23;98823.38;;;-18.72;100.00
55932;BME280;41837;55.700;37.984;2023-02-22T00:05:55;98812.28;;;-18.77;100.00
55932;BME280;41837;55.700;37.984;2023-02-22T00:08:25;98819.75;;;-18.77;100.00
55932;BME280;41837;55.700;37.984;2023-02-22T00:10:56;98809.13;;;-18.89;100.00
55932;BME280;41837;55.700;37.984;2023-02-22T00:13:23;98827.69;;;-18.84;100.00
55932;BME280;41837;55.700;37.984;2023-02-22T00:15:50;98834.66;;;-18.93;100.00
55932;BME280;41837;55.700;37.984;2023-02-22T00:18:17;98835.41;;;-18.94;100.00
55932;BME280;41837;55.700;37.984;2023-02-22T00:20:44;98840.31;;;-18.96;100.00
55932;BME280;41837;55.700;37.984;2023-02-22T00:23:20;98841.16;;;-18.95;100.00
55932;BME280;41837;55.700;37.984;2023-02-22T00:25:48;98842.97;;;-18.93;100.00
55932;BME280;41837;55.700;37.984;2023-02-22T00:28:15;98856.03;;;-18.97;100.00
55932;BME280;41837;55.700;37.984;2023-02-22T00:30:42;98850.22;;;-19.11;100.00
55932;BME280;41837;55.700;37.984;2023-02-22T00:33:10;98864.50;;;-19.08;100.00
55932;BME280;41837;55.700;37.984;2023-02-22T00:35:36;98861.16;;;-19.09;100.00
55932;BME280;41837;55.700;37.984;2023-02-22T00:38:03;98872.81;;;-19.08;100.00
55932;BME280;41837;55.700;37.984;2023-02-22T00:40:31;98871.97;;;-19.08;100.00
55932;BME280;41837;55.700;37.984;2023-02-22T00:43:02;98878.00;;;-19.05;100.00
55932;BME280;41837;55.700;37.984;2023-02-22T00:45:30;98870.72;;;-19.02;100.00
55932;BME280;41837;55.700;37.984;2023-02-22T00:47:58;98885.19;;;-19.09;100.00
55932;BME280;41837;55.700;37.984;2023-02-22T00:50:26;98887.50;;;-19.12;100.00
55932;BME280;41837;55.700;37.984;2023-02-22T00:52:53;98894.13;;;-19.13;100.00
55932;BME280;41837;55.700;37.984;2023-02-22T00:55:24;98881.03;;;-19.24;100.00
55932;BME280;41837;55.700;37.984;2023-02-22T00:57:51;98898.56;;;-19.22;100.00
55932;BME280;41837;55.700;37.984;2023-02-22T01:02:50;98891.47;;;-19.29;100.00
55932;BME280;41837;55.700;37.984;2023-02-22T01:05:25;98896.63;;;-19.26;100.00
55932;BME280;41837;55.700;37.984;2023-02-22T01:07:53;98896.81;;;-19.23;100.00
55932;BME280;41837;55.700;37.984;2023-02-22T01:10:22;98886.13;;;-19.36;100.00
55932;BME280;41837;55.700;37.984;2023-02-22T01:12:49;98898.88;;;-19.31;100.00
55932;BME280;41837;55.700;37.984;2023-02-22T01:15:19;98908.81;;;-19.31;100.00
55932;BME280;41837;55.700;37.984;2023-02-22T01:17:47;98908.88;;;-19.29;100.00
55932;BME280;41837;55.700;37.984;2023-02-22T01:20:14;98907.50;;;-19.39;100.00
55932;BME280;41837;55.700;37.984;2023-02-22T01:22:43;98915.53;;;-19.43;100.00
55932;BME280;41837;55.700;37.984;2023-02-22T01:25:11;98915.72;;;-19.40;100.00
55932;BME280;41837;55.700;37.984;2023-02-22T01:27:40;98926.53;;;-19.40;100.00
55932;BME280;41837;55.700;37.984;2023-02-22T01:30:07;98926.81;;;-19.48;100.00
55932;BME280;41837;55.700;37.984;2023-02-22T01:32:35;98917.47;;;-19.52;100.00
55932;BME280;41837;55.700;37.984;2023-02-22T01:35:03;98925.97;;;-19.49;100.00
55932;BME280;41837;55.700;37.984;2023-02-22T01:37:31;98924.34;;;-19.48;100.00
55932;BME280;41837;55.700;37.984;2023-02-22T01:39:58;98930.19;;;-19.48;100.00
55932;BME280;41837;55.700;37.984;2023-02-22T01:42:25;98921.28;;;-19.58;100.00
55932;BME280;41837;55.700;37.984;2023-02-22T01:48:00;98939.88;;;-19.52;100.00
55932;BME280;41837;55.700;37.984;2023-02-22T01:50:30;98941.38;;;-19.41;100.00
55932;BME280;41837;55.700;37.984;2023-02-22T01:52:59;98949.44;;;-19.45;100.00
55932;BME280;41837;55.700;37.984;2023-02-22T01:55:25;98948.00;;;-19.55;100.00
55932;BME280;41837;55.700;37.984;2023-02-22T01:57:52;98956.03;;;-19.59;100.00
55932;BME280;41837;55.700;37.984;2023-02-22T02:00:19;98957.94;;;-19.55;100.00
55932;BME280;41837;55.700;37.984;2023-02-22T02:02:51;98957.84;;;-19.57;100.00
55932;BME280;41837;55.700;37.984;2023-02-22T02:05:27;98956.03;;;-19.59;100.00
55932;BME280;41837;55.700;37.984;2023-02-22T02:07:58;98953.94;;;-19.66;100.00
55932;BME280;41837;55.700;37.984;2023-02-22T02:10:28;98956.78;;;-19.60;100.00
55932;BME280;41837;55.700;37.984;2023-02-22T02:12:55;98956.91;;;-19.59;100.00
55932;BME280;41837;55.700;37.984;2023-02-22T02:15:27;98968.78;;;-19.68;100.00
55932;BME280;41837;55.700;37.984;2023-02-22T02:17:56;98966.00;;;-19.73;100.00
55932;BME280;41837;55.700;37.984;2023-02-22T02:20:41;98965.06;;;-19.75;100.00
55932;BME280;41837;55.700;37.984;2023-02-22T02:23:21;98964.66;;;-19.67;100.00
55932;BME280;41837;55.700;37.984;2023-02-22T02:42:56;99000.56;;;-19.77;100.00
55932;BME280;41837;55.700;37.984;2023-02-22T02:45:42;99005.25;;;-19.82;100.00
55932;BME280;41837;55.700;37.984;2023-02-22T02:48:11;99005.81;;;-19.73;100.00
55932;BME280;41837;55.700;37.984;2023-02-22T02:50:48;99006.88;;;-19.82;100.00
55932;BME280;41837;55.700;37.984;2023-02-22T02:53:21;99013.19;;;-19.74;100.00
55932;BME280;41837;55.700;37.984;2023-02-22T02:55:49;99016.38;;;-19.77;100.00
55932;BME280;41837;55.700;37.984;2023-02-22T02:58:18;99022.84;;;-19.79;100.00
55932;BME280;41837;55.700;37.984;2023-02-22T03:00:46;99024.06;;;-19.72;100.00
55932;BME280;41837;55.700;37.984;2023-02-22T03:09:05;99028.72;;;-19.78;100.00
55932;BME280;41837;55.700;37.984;2023-02-22T03:15:02;99041.69;;;-19.82;100.00
55932;BME280;41837;55.700;37.984;2023-02-22T03:20:27;99036.34;;;-19.75;100.00
55932;BME280;41837;55.700;37.984;2023-02-22T03:23:19;99042.97;;;-19.76;100.00
55932;BME280;41837;55.700;37.984;2023-02-22T03:26:00;99049.94;;;-19.70;100.00
55932;BME280;41837;55.700;37.984;2023-02-22T03:28:29;99056.19;;;-19.77;100.00
55932;BME280;41837;55.700;37.984;2023-02-22T03:31:02;99063.34;;;-19.81;100.00
55932;BME280;41837;55.700;37.984;2023-02-22T03:33:39;99057.56;;;-19.80;100.00
55932;BME280;41837;55.700;37.984;2023-02-22T03:36:24;99068.31;;;-19.81;100.00
55932;BME280;41837;55.700;37.984;2023-02-22T03:38:55;99065.94;;;-19.80;100.00
55932;BME280;41837;55.700;37.984;2023-02-22T03:41:24;99071.81;;;-19.91;100.00
55932;BME280;41837;55.700;37.984;2023-02-22T03:44:04;99074.41;;;-19.89;100.00
55932;BME280;41837;55.700;37.984;2023-02-22T03:46:34;99068.69;;;-19.88;100.00
55932;BME280;41837;55.700;37.984;2023-02-22T03:51:42;99089.66;;;-19.85;100.00
55932;BME280;41837;55.700;37.984;2023-02-22T03:54:08;99085.63;;;-19.83;100.00
55932;BME280;41837;55.700;37.984;2023-02-22T03:57:20;99080.72;;;-19.95;100.00
55932;BME280;41837;55.700;37.984;2023-02-22T03:59:53;99102.03;;;-19.98;100.00
55932;BME280;41837;55.700;37.984;2023-02-22T04:02:19;99091.13;;;-20.00;100.00
55932;BME280;41837;55.700;37.984;2023-02-22T04:04:49;99094.69;;;-19.97;100.00
55932;BME280;41837;55.700;37.984;2023-02-22T04:07:16;99100.28;;;-19.99;100.00
55932;BME280;41837;55.700;37.984;2023-02-22T04:09:43;99097.69;;;-20.01;100.00
55932;BME280;41837;55.700;37.984;2023-02-22T04:12:10;99099.53;;;-19.98;100.00
55932;BME280;41837;55.700;37.984;2023-02-22T04:14:50;99100.81;;;-19.92;100.00
55932;BME280;41837;55.700;37.984;2023-02-22T04:17:16;99107.31;;;-19.94;100.00
55932;BME280;41837;55.700;37.984;2023-02-22T04:19:42;99114.00;;;-19.93;100.00
55932;BME280;41837;55.700;37.984;2023-02-22T04:22:12;99107.84;;;-19.98;100.00
55932;BME280;41837;55.700;37.984;2023-02-22T04:24:38;99116.38;;;-19.94;100.00
55932;BME280;41837;55.700;37.984;2023-02-22T04:27:04;99119.22;;;-20.01;100.00
55932;BME280;41837;55.700;37.984;2023-02-22T04:29:32;99126.59;;;-20.03;100.00
55932;BME280;41837;55.700;37.984;2023-02-22T04:32:00;99121.41;;;-20.06;100.00
55932;BME280;41837;55.700;37.984;2023-02-22T04:34:26;99115.47;;;-20.08;100.00
55932;BME280;41837;55.700;37.984;2023-02-22T04:36:53;99132.97;;;-20.06;100.00
55932;BME280;41837;55.700;37.984;2023-02-22T04:39:19;99137.50;;;-20.01;100.00
55932;BME280;41837;55.700;37.984;2023-02-22T04:41:45;99141.63;;;-20.01;100.00
55932;BME280;41837;55.700;37.984;2023-02-22T04:44:13;99141.03;;;-19.97;100.00
55932;BME280;41837;55.700;37.984;2023-02-22T04:46:40;99143.53;;;-19.97;100.00
55932;BME280;41837;55.700;37.984;2023-02-22T04:49:06;99150.00;;;-19.87;100.00
55932;BME280;41837;55.700;37.984;2023-02-22T04:51:35;99154.22;;;-19.86;100.00
55932;BME280;41837;55.700;37.984;2023-02-22T04:54:06;99152.47;;;-19.87;100.00
55932;BME280;41837;55.700;37.984;2023-02-22T04:56:33;99157.03;;;-19.82;100.00
55932;BME280;41837;55.700;37.984;2023-02-22T04:59:00;99157.53;;;-19.74;100.00
55932;BME280;41837;55.700;37.984;2023-02-22T05:01:34;99157.91;;;-19.68;100.00
55932;BME280;41837;55.700;37.984;2023-02-22T05:04:02;99162.06;;;-19.55;100.00
55932;BME280;41837;55.700;37.984;2023-02-22T05:06:28;99163.06;;;-19.40;100.00
55932;BME280;41837;55.700;37.984;2023-02-22T05:08:55;99169.88;;;-18.99;100.00
55932;BME280;41837;55.700;37.984;2023-02-22T05:11:21;99170.97;;;-18.80;100.00
55932;BME280;41837;55.700;37.984;2023-02-22T05:13:47;99172.41;;;-18.57;100.00
55932;BME280;41837;55.700;37.984;2023-02-22T05:16:13;99168.38;;;-18.42;100.00
55932;BME280;41837;55.700;37.984;2023-02-22T05:18:40;99165.09;;;-18.14;100.00
55932;BME280;41837;55.700;37.984;2023-02-22T05:21:07;99172.84;;;-18.23;100.00
55932;BME280;41837;55.700;37.984;2023-02-22T05:23:33;99179.16;;;-17.73;100.00
55932;BME280;41837;55.700;37.984;2023-02-22T05:25:59;99174.16;;;-18.01;98.77
55932;BME280;41837;55.700;37.984;2023-02-22T05:28:26;99163.03;;;-17.35;97.67
55932;BME280;41837;55.700;37.984;2023-02-22T05:30:52;99144.94;;;-17.45;95.94
55932;BME280;41837;55.700;37.984;2023-02-22T05:33:18;99168.06;;;-17.05;94.28
55932;BME280;41837;55.700;37.984;2023-02-22T05:35:44;99165.94;;;-16.67;91.58
55932;BME280;41837;55.700;37.984;2023-02-22T05:38:12;99174.88;;;-16.56;90.29
55932;BME280;41837;55.700;37.984;2023-02-22T05:40:40;99163.28;;;-16.39;88.93
55932;BME280;41837;55.700;37.984;2023-02-22T05:43:06;99169.53;;;-16.16;88.07
55932;BME280;41837;55.700;37.984;2023-02-22T05:45:33;99180.59;;;-15.96;83.97
55932;BME280;41837;55.700;37.984;2023-02-22T05:48:01;99182.03;;;-15.85;84.47
55932;BME280;41837;55.700;37.984;2023-02-22T05:50:27;99176.16;;;-16.02;82.95
55932;BME280;41837;55.700;37.984;2023-02-22T05:52:54;99188.69;;;-15.52;81.40
55932;BME280;41837;55.700;37.984;2023-02-22T05:55:22;99192.44;;;-15.61;81.42
55932;BME280;41837;55.700;37.984;2023-02-22T05:57:49;99187.09;;;-15.50;81.10
55932;BME280;41837;55.700;37.984;2023-02-22T06:00:18;99188.28;;;-15.44;79.40
55932;BME280;41837;55.700;37.984;2023-02-22T06:02:44;99198.84;;;-15.49;78.13
55932;BME280;41837;55.700;37.984;2023-02-22T06:05:10;99188.81;;;-15.16;76.84
55932;BME280;41837;55.700;37.984;2023-02-22T06:07:36;99197.91;;;-15.18;77.47
55932;BME280;41837;55.700;37.984;2023-02-22T06:10:02;99188.41;;;-15.08;78.54
55932;BME280;41837;55.700;37.984;2023-02-22T06:12:29;99187.53;;;-14.74;77.60
55932;BME280;41837;55.700;37.984;2023-02-22T06:14:55;99200.84;;;-14.93;76.67
55932;BME280;41837;55.700;37.984;2023-02-22T06:17:21;99199.59;;;-15.01;77.66
55932;BME280;41837;55.700;37.984;2023-02-22T06:19:47;99210.69;;;-14.43;75.80
55932;BME280;41837;55.700;37.984;2023-02-22T06:22:18;99202.88;;;-14.68;76.01
55932;BME280;41837;55.700;37.984;2023-02-22T06:24:44;99205.94;;;-14.37;73.34
55932;BME280;41837;55.700;37.984;2023-02-22T06:27:10;99203.78;;;-14.48;73.14
55932;BME280;41837;55.700;37.984;2023-02-22T06:29:36;99199.78;;;-14.26;71.70
55932;BME280;41837;55.700;37.984;2023-02-22T06:32:02;99208.91;;;-14.98;73.35
55932;BME280;41837;55.700;37.984;2023-02-22T06:34:28;99206.50;;;-14.43;73.20
55932;BME280;41837;55.700;37.984;2023-02-22T06:36:55;99214.41;;;-13.99;72.94
55932;BME280;41837;55.700;37.984;2023-02-22T06:39:21;99201.34;;;-14.46;70.41
55932;BME280;41837;55.700;37.984;2023-02-22T06:41:47;99220.00;;;-14.23;70.37
55932;BME280;41837;55.700;37.984;2023-02-22T06:44:15;99220.28;;;-13.61;69.47
55932;BME280;41837;55.700;37.984;2023-02-22T06:46:49;99224.22;;;-13.27;68.55
55932;BME280;41837;55.700;37.984;2023-02-22T06:49:19;99218.91;;;-13.55;67.14
55932;BME280;41837;55.700;37.984;2023-02-22T06:51:45;99219.88;;;-13.51;67.56
55932;BME280;41837;55.700;37.984;2023-02-22T06:54:12;99224.66;;;-13.57;67.88
55932;BME280;41837;55.700;37.984;2023-02-22T06:56:38;99233.94;;;-13.37;67.63
55932;BME280;41837;55.700;37.984;2023-02-22T06:59:04;99216.75;;;-12.66;66.55
55932;BME280;41837;55.700;37.984;2023-02-22T07:01:30;99233.63;;;-12.84;65.59
55932;BME280;41837;55.700;37.984;2023-02-22T07:03:56;99231.94;;;-12.84;66.02
55932;BME280;41837;55.700;37.984;2023-02-22T07:06:22;99236.09;;;-12.23;64.27
55932;BME280;41837;55.700;37.984;2023-02-22T07:08:48;99232.25;;;-11.90;63.59
55932;BME280;41837;55.700;37.984;2023-02-22T07:11:15;99240.47;;;-12.61;64.12
55932;BME280;41837;55.700;37.984;2023-02-22T07:13:42;99240.41;;;-12.82;64.61
55932;BME280;41837;55.700;37.984;2023-02-22T07:16:08;99240.94;;;-12.48;63.45
55932;BME280;41837;55.700;37.984;2023-02-22T07:18:34;99246.72;;;-12.51;63.03
55932;BME280;41837;55.700;37.984;2023-02-22T07:21:00;99248.81;;;-11.74;63.83
55932;BME280;41837;55.700;37.984;2023-02-22T07:23:26;99249.78;;;-12.16;63.20
55932;BME280;41837;55.700;37.984;2023-02-22T07:25:52;99251.31;;;-11.76;62.13
55932;BME280;41837;55.700;37.984;2023-02-22T07:28:18;99253.25;;;-11.69;62.31
55932;BME280;41837;55.700;37.984;2023-02-22T07:30:44;99241.91;;;-12.24;62.44
55932;BME280;41837;55.700;37.984;2023-02-22T07:33:11;99249.88;;;-10.98;60.94
55932;BME280;41837;55.700;37.984;2023-02-22T07:35:45;99253.72;;;-11.32;60.30
55932;BME280;41837;55.700;37.984;2023-02-22T07:38:13;99254.13;;;-11.44;59.59
55932;BME280;41837;55.700;37.984;2023-02-22T07:40:41;99264.03;;;-11.26;60.60
55932;BME280;41837;55.700;37.984;2023-02-22T07:43:28;99250.09;;;-11.16;59.90
55932;BME280;41837;55.700;37.984;2023-02-22T07:45:59;99277.16;;;-11.12;58.64
55932;BME280;41837;55.700;37.984;2023-02-22T07:48:28;99265.66;;;-12.59;62.27
55932;BME280;41837;55.700;37.984;2023-02-22T07:50:55;99277.31;;;-11.99;62.02
55932;BME280;41837;55.700;37.984;2023-02-22T07:53:30;99275.25;;;-11.42;60.37
55932;BME280;41837;55.700;37.984;2023-02-22T07:56:00;99276.50;;;-11.76;61.16
55932;BME280;41837;55.700;37.984;2023-02-22T07:58:28;99280.72;;;-12.20;59.72
55932;BME280;41837;55.700;37.984;2023-02-22T08:00:55;99287.16;;;-11.38;60.29
55932;BME280;41837;55.700;37.984;2023-02-22T08:03:24;99278.81;;;-11.37;60.81
55932;BME280;41837;55.700;37.984;2023-02-22T08:05:54;99278.50;;;-11.45;61.37
55932;BME280;41837;55.700;37.984;2023-02-22T08:08:21;99282.06;;;-11.39;60.19
55932;BME280;41837;55.700;37.984;2023-02-22T08:10:48;99286.06;;;-11.22;59.90
55932;BME280;41837;55.700;37.984;2023-02-22T08:13:15;99282.72;;;-10.73;59.26
55932;BME280;41837;55.700;37.984;2023-02-22T08:15:42;99285.31;;;-10.45;58.62
55932;BME280;41837;55.700;37.984;2023-02-22T08:18:14;99287.69;;;-10.76;57.15
55932;BME280;41837;55.700;37.984;2023-02-22T08:20:42;99282.06;;;-10.93;57.16
55932;BME280;41837;55.700;37.984;2023-02-22T08:23:10;99293.81;;;-10.18;58.83
55932;BME280;41837;55.700;37.984;2023-02-22T08:25:37;99304.34;;;-10.81;57.55
55932;BME280;41837;55.700;37.984;2023-02-22T08:28:06;99303.00;;;-10.47;56.73
55932;BME280;41837;55.700;37.984;2023-02-22T08:30:34;99309.00;;;-9.63;57.06
55932;BME280;41837;55.700;37.984;2023-02-22T08:33:01;99307.84;;;-10.00;55.85
55932;BME280;41837;55.700;37.984;2023-02-22T08:35:28;99319.31;;;-10.10;55.75
55932;BME280;41837;55.700;37.984;2023-02-22T08:37:58;99310.56;;;-9.94;56.50
55932;BME280;41837;55.700;37.984;2023-02-22T08:40:26;99324.75;;;-9.72;57.36
55932;BME280;41837;55.700;37.984;2023-02-22T08:42:53;99327.75;;;-10.37;56.54
55932;BME280;41837;55.700;37.984;2023-02-22T08:45:19;99336.91;;;-9.87;56.67
55932;BME280;41837;55.700;37.984;2023-02-22T08:47:45;99322.69;;;-9.57;56.74
55932;BME280;41837;55.700;37.984;2023-02-22T08:50:23;99333.22;;;-9.43;54.04
55932;BME280;41837;55.700;37.984;2023-02-22T08:52:51;99337.78;;;-10.64;56.10
55932;BME280;41837;55.700;37.984;2023-02-22T08:55:22;99330.41;;;-10.82;56.73
55932;BME280;41837;55.700;37.984;2023-02-22T08:57:48;99345.88;;;-11.19;58.82
55932;BME280;41837;55.700;37.984;2023-02-22T09:00:19;99327.88;;;-10.82;59.04
55932;BME280;41837;55.700;37.984;2023-02-22T09:02:46;99330.97;;;-11.36;58.98
55932;BME280;41837;55.700;37.984;2023-02-22T09:05:12;99349.88;;;-11.02;59.50
55932;BME280;41837;55.700;37.984;2023-02-22T09:07:40;99355.06;;;-11.21;58.99
55932;BME280;41837;55.700;37.984;2023-02-22T09:10:09;99351.97;;;-11.58;59.19
55932;BME280;41837;55.700;37.984;2023-02-22T09:12:36;99355.91;;;-11.43;60.83
55932;BME280;41837;55.700;37.984;2023-02-22T09:15:02;99359.53;;;-11.37;61.18
55932;BME280;41837;55.700;37.984;2023-02-22T09:17:29;99365.19;;;-11.42;60.89
55932;BME280;41837;55.700;37.984;2023-02-22T09:19:55;99354.06;;;-11.48;60.39
55932;BME280;41837;55.700;37.984;2023-02-22T09:22:21;99357.84;;;-11.14;60.68
55932;BME280;41837;55.700;37.984;2023-02-22T09:24:47;99349.34;;;-10.93;59.20
55932;BME280;41837;55.700;37.984;2023-02-22T09:27:13;99352.38;;;-11.47;59.80
55932;BME280;41837;55.700;37.984;2023-02-22T09:29:40;99345.13;;;-11.83;60.76
55932;BME280;41837;55.700;37.984;2023-02-22T09:32:06;99363.66;;;-11.16;59.79
55932;BME280;41837;55.700;37.984;2023-02-22T09:34:32;99361.34;;;-11.10;61.02
55932;BME280;41837;55.700;37.984;2023-02-22T09:37:00;99369.56;;;-11.59;61.58
55932;BME280;41837;55.700;37.984;2023-02-22T09:39:26;99356.00;;;-11.63;59.94
55932;BME280;41837;55.700;37.984;2023-02-22T09:44:23;99359.72;;;-11.10;59.98
55932;BME280;41837;55.700;37.984;2023-02-22T09:46:53;99355.13;;;-11.20;60.60
55932;BME280;41837;55.700;37.984;2023-02-22T09:49:37;99354.25;;;-11.43;60.31
55932;BME280;41837;55.700;37.984;2023-02-22T09:52:23;99355.75;;;-11.03;60.86
55932;BME280;41837;55.700;37.984;2023-02-22T09:57:39;99356.59;;;-11.02;60.84
55932;BME280;41837;55.700;37.984;2023-02-22T10:00:21;99354.75;;;-10.84;60.67
55932;BME280;41837;55.700;37.984;2023-02-22T10:06:03;99355.13;;;-10.73;58.72
55932;BME280;41837;55.700;37.984;2023-02-22T10:08:32;99363.22;;;-11.72;60.60
55932;BME280;41837;55.700;37.984;2023-02-22T10:22:36;99378.09;;;-11.78;62.65
55932;BME280;41837;55.700;37.984;2023-02-22T10:25:11;99355.28;;;-11.60;62.30
55932;BME280;41837;55.700;37.984;2023-02-22T10:27:41;99372.44;;;-11.29;61.64
55932;BME280;41837;55.700;37.984;2023-02-22T10:30:25;99374.84;;;-11.10;61.19
55932;BME280;41837;55.700;37.984;2023-02-22T10:33:06;99376.78;;;-11.90;61.02
55932;BME280;41837;55.700;37.984;2023-02-22T10:35:38;99374.94;;;-11.73;62.25
55932;BME280;41837;55.700;37.984;2023-02-22T10:38:26;99378.81;;;-11.60;62.77
55932;BME280;41837;55.700;37.984;2023-02-22T10:41:01;99377.69;;;-11.46;62.23
55932;BME280;41837;55.700;37.984;2023-02-22T10:43:29;99392.53;;;-11.74;61.83
55932;BME280;41837;55.700;37.984;2023-02-22T10:45:59;99384.94;;;-11.97;62.65
55932;BME280;41837;55.700;37.984;2023-02-22T10:48:30;99381.44;;;-12.01;62.27
55932;BME280;41837;55.700;37.984;2023-02-22T10:50:59;99389.53;;;-12.08;62.90
55932;BME280;41837;55.700;37.984;2023-02-22T10:53:27;99404.38;;;-11.94;63.30
55932;BME280;41837;55.700;37.984;2023-02-22T10:58:58;99401.13;;;-11.90;63.31
55932;BME280;41837;55.700;37.984;2023-02-22T11:01:36;99395.38;;;-11.67;62.85
55932;BME280;41837;55.700;37.984;2023-02-22T11:04:13;99398.53;;;-11.93;62.86
55932;BME280;41837;55.700;37.984;2023-02-22T11:06:42;99405.13;;;-11.74;63.69
55932;BME280;41837;55.700;37.984;2023-02-22T11:09:10;99407.34;;;-12.24;63.06
55932;BME280;41837;55.700;37.984;2023-02-22T11:11:42;99406.06;;;-12.14;64.26
55932;BME280;41837;55.700;37.984;2023-02-22T11:14:12;99402.13;;;-11.66;64.65
55932;BME280;41837;55.700;37.984;2023-02-22T11:16:51;99407.78;;;-11.50;62.82
55932;BME280;41837;55.700;37.984;2023-02-22T11:19:24;99414.91;;;-11.61;64.15
55932;BME280;41837;55.700;37.984;2023-02-22T11:24:49;99419.44;;;-11.96;65.12
55932;BME280;41837;55.700;37.984;2023-02-22T11:27:42;99416.16;;;-11.72;64.57
55932;BME280;41837;55.700;37.984;2023-02-22T11:30:20;99406.00;;;-11.95;64.84
55932;BME280;41837;55.700;37.984;2023-02-22T11:35:59;99409.06;;;-11.60;63.62
55932;BME280;41837;55.700;37.984;2023-02-22T11:38:32;99428.84;;;-11.92;64.46
55932;BME280;41837;55.700;37.984;2023-02-22T11:41:06;99437.69;;;-12.21;64.92
55932;BME280;41837;55.700;37.984;2023-02-22T11:43:33;99435.13;;;-12.23;64.74
55932;BME280;41837;55.700;37.984;2023-02-22T11:46:03;99424.25;;;-12.41;66.16
55932;BME280;41837;55.700;37.984;2023-02-22T11:48:34;99431.00;;;-12.21;65.67
55932;BME280;41837;55.700;37.984;2023-02-22T11:56:47;99431.25;;;-12.14;66.02
55932;BME280;41837;55.700;37.984;2023-02-22T11:59:45;99444.38;;;-12.02;66.40
55932;BME280;41837;55.700;37.984;2023-02-22T12:07:48;99452.16;;;-12.36;67.00
55932;BME280;41837;55.700;37.984;2023-02-22T12:11:00;99438.16;;;-12.30;66.96
55932;BME280;41837;55.700;37.984;2023-02-22T12:19:10;99469.78;;;-12.17;68.51
55932;BME280;41837;55.700;37.984;2023-02-22T12:21:42;99467.47;;;-12.32;68.50
55932;BME280;41837;55.700;37.984;2023-02-22T12:24:15;99474.47;;;-12.05;68.47
55932;BME280;41837;55.700;37.984;2023-02-22T12:26:50;99477.69;;;-12.09;68.27
55932;BME280;41837;55.700;37.984;2023-02-22T12:29:29;99482.25;;;-12.20;69.04
55932;BME280;41837;55.700;37.984;2023-02-22T12:32:13;99487.16;;;-12.04;68.41
55932;BME280;41837;55.700;37.984;2023-02-22T12:34:47;99485.28;;;-12.27;69.32
55932;BME280;41837;55.700;37.984;2023-02-22T12:37:36;99495.69;;;-12.39;70.08
55932;BME280;41837;55.700;37.984;2023-02-22T12:42:59;99507.03;;;-12.49;70.28
55932;BME280;41837;55.700;37.984;2023-02-22T12:45:35;99501.63;;;-12.76;70.80
55932;BME280;41837;55.700;37.984;2023-02-22T12:50:45;99509.59;;;-12.47;71.70
55932;BME280;41837;55.700;37.984;2023-02-22T12:53:20;99506.75;;;-12.73;71.30
55932;BME280;41837;55.700;37.984;2023-02-22T12:58:53;99520.25;;;-12.53;72.53
55932;BME280;41837;55.700;37.984;2023-02-22T13:01:23;99515.97;;;-12.73;72.57
55932;BME280;41837;55.700;37.984;2023-02-22T13:03:52;99519.88;;;-12.80;71.81
55932;BME280;41837;55.700;37.984;2023-02-22T13:14:52;99532.31;;;-12.83;72.13
55932;BME280;41837;55.700;37.984;2023-02-22T13:17:32;99528.91;;;-13.02;73.67
55932;BME280;41837;55.700;37.984;2023-02-22T13:20:16;99525.56;;;-12.84;73.02
55932;BME280;41837;55.700;37.984;2023-02-22T13:23:09;99535.84;;;-12.98;73.78
55932;BME280;41837;55.700;37.984;2023-02-22T13:25:49;99539.88;;;-13.01;73.65
55932;BME280;41837;55.700;37.984;2023-02-22T13:28:27;99533.63;;;-13.09;74.58
55932;BME280;41837;55.700;37.984;2023-02-22T13:31:22;99530.94;;;-13.13;74.33
55932;BME280;41837;55.700;37.984;2023-02-22T13:36:36;99544.91;;;-13.01;75.45
55932;BME280;41837;55.700;37.984;2023-02-22T13:39:17;99554.00;;;-13.03;74.71
55932;BME280;41837;55.700;37.984;2023-02-22T13:44:54;99549.91;;;-13.19;76.44
55932;BME280;41837;55.700;37.984;2023-02-22T13:52:54;99548.69;;;-13.45;77.58
55932;BME280;41837;55.700;37.984;2023-02-22T13:55:25;99553.00;;;-13.43;77.86
55932;BME280;41837;55.700;37.984;2023-02-22T13:58:05;99552.91;;;-13.44;78.34
55932;BME280;41837;55.700;37.984;2023-02-22T14:00:44;99535.75;;;-13.70;77.39
55932;BME280;41837;55.700;37.984;2023-02-22T14:13:13;99558.41;;;-13.86;80.58
55932;BME280;41837;55.700;37.984;2023-02-22T14:18:27;99554.72;;;-13.93;82.35
55932;BME280;41837;55.700;37.984;2023-02-22T14:21:08;99566.66;;;-14.05;82.34
55932;BME280;41837;55.700;37.984;2023-02-22T14:23:36;99569.22;;;-14.03;83.33
55932;BME280;41837;55.700;37.984;2023-02-22T14:31:18;99579.78;;;-14.26;83.27
55932;BME280;41837;55.700;37.984;2023-02-22T14:36:24;99580.03;;;-14.21;84.20
55932;BME280;41837;55.700;37.984;2023-02-22T14:38:53;99575.31;;;-14.31;85.62
55932;BME280;41837;55.700;37.984;2023-02-22T14:41:22;99587.47;;;-14.39;84.69
55932;BME280;41837;55.700;37.984;2023-02-22T14:43:53;99598.22;;;-14.41;85.18
55932;BME280;41837;55.700;37.984;2023-02-22T14:46:23;99593.19;;;-14.41;86.37
55932;BME280;41837;55.700;37.984;2023-02-22T14:48:57;99592.94;;;-14.46;86.76
55932;BME280;41837;55.700;37.984;2023-02-22T14:51:28;99593.66;;;-14.49;87.44
55932;BME280;41837;55.700;37.984;2023-02-22T14:54:05;99601.19;;;-14.49;87.35
55932;BME280;41837;55.700;37.984;2023-02-22T14:56:56;99599.03;;;-14.57;87.59
55932;BME280;41837;55.700;37.984;2023-02-22T14:59:25;99596.53;;;-14.57;88.35
55932;BME280;41837;55.700;37.984;2023-02-22T15:02:12;99606.56;;;-14.57;90.10
55932;BME280;41837;55.700;37.984;2023-02-22T15:04:39;99606.66;;;-14.56;89.16